createdAt,value
2023-02-24T00:01:54.590Z,3.03
2023-02-24T00:04:21.676Z,2.97
2023-02-24T00:06:49.072Z,3.55
2023-02-24T00:09:21.967Z,3.47
2023-02-24T00:12:02.391Z,3.10
2023-02-24T00:14:33.316Z,3.20
2023-02-24T00:17:00.895Z,3.78
2023-02-24T00:19:32.785Z,3.17
2023-02-24T00:22:01.418Z,3.60
2023-02-24T00:24:29.031Z,3.67
2023-02-24T00:26:59.613Z,3.42
2023-02-24T00:29:29.113Z,3.65
2023-02-24T00:32:01.431Z,3.50
2023-02-24T00:34:33.992Z,3.40
2023-02-24T00:37:02.067Z,4.05
2023-02-24T00:39:34.655Z,3.08
2023-02-24T00:42:06.386Z,3.72
2023-02-24T00:44:46.343Z,3.55
2023-02-24T00:47:19.050Z,3.38
2023-02-24T00:49:46.125Z,3.30
2023-02-24T00:52:16.029Z,3.33
2023-02-24T00:54:45.322Z,3.33
2023-02-24T00:57:13.312Z,3.20
2023-02-24T00:59:40.580Z,3.38
2023-02-24T01:02:07.794Z,3.55
2023-02-24T01:04:35.446Z,3.00
2023-02-24T01:07:02.424Z,3.55
2023-02-24T01:09:31.332Z,3.67
2023-02-24T01:12:21.999Z,3.67
2023-02-24T01:14:52.226Z,2.80
2023-02-24T01:17:21.881Z,3.22
2023-02-24T01:19:50.448Z,3.53
2023-02-24T01:22:19.901Z,2.90
2023-02-24T01:24:47.609Z,2.50
2023-02-24T01:27:19.935Z,7.32
2023-02-24T01:29:50.329Z,4.47
2023-02-24T01:32:21.054Z,3.70
2023-02-24T01:34:52.218Z,3.35
2023-02-24T01:37:20.328Z,3.63
2023-02-24T01:39:48.215Z,4.07
2023-02-24T01:42:19.827Z,2.33
2023-02-24T01:44:47.774Z,3.13
2023-02-24T01:47:18.553Z,3.40
2023-02-24T01:49:49.939Z,2.60
2023-02-24T01:52:19.077Z,3.35
2023-02-24T01:54:58.711Z,3.50
2023-02-24T01:57:31.355Z,3.85
2023-02-24T02:00:11.298Z,3.20
2023-02-24T02:02:46.588Z,3.10
2023-02-24T02:05:14.786Z,3.58
2023-02-24T02:07:43.587Z,3.53
2023-02-24T02:10:11.372Z,3.67
2023-02-24T02:12:45.239Z,3.72
2023-02-24T02:15:14.745Z,2.97
2023-02-24T02:18:28.595Z,3.58
2023-02-24T02:21:36.365Z,3.40
2023-02-24T02:24:13.213Z,3.72
2023-02-24T02:26:58.944Z,3.22
2023-02-24T02:29:48.602Z,3.45
2023-02-24T02:32:35.235Z,3.50
2023-02-24T02:35:19.037Z,3.40
2023-02-24T02:38:04.457Z,3.95
2023-02-24T02:40:42.574Z,3.63
2023-02-24T02:43:49.416Z,4.00
2023-02-24T02:46:34.972Z,3.67
2023-02-24T02:49:09.012Z,2.58
2023-02-24T02:51:45.941Z,3.78
2023-02-24T02:54:18.236Z,3.47
2023-02-24T02:57:13.118Z,4.10
2023-02-24T02:59:49.458Z,2.95
2023-02-24T03:02:21.433Z,3.20
2023-02-24T03:04:57.829Z,3.95
2023-02-24T03:07:31.390Z,3.58
2023-02-24T03:10:10.808Z,3.50
2023-02-24T03:12:41.085Z,3.30
2023-02-24T03:15:11.360Z,4.20
2023-02-24T03:17:43.508Z,3.25
2023-02-24T03:20:16.732Z,3.35
2023-02-24T03:22:56.082Z,3.78
2023-02-24T03:25:28.772Z,3.63
2023-02-24T03:28:04.004Z,3.17
2023-02-24T03:30:50.541Z,3.15
2023-02-24T03:33:39.030Z,2.60
2023-02-24T03:36:06.130Z,3.33
2023-02-24T03:38:38.400Z,3.50
2023-02-24T03:41:11.458Z,2.78
2023-02-24T03:43:46.821Z,2.85
2023-02-24T03:46:17.147Z,3.47
2023-02-24T03:48:53.966Z,3.40
2023-02-24T03:51:23.539Z,4.00
2023-02-24T03:53:56.304Z,4.00
2023-02-24T03:56:27.052Z,4.55
2023-02-24T03:59:28.027Z,3.75
2023-02-24T04:02:30.235Z,3.70
2023-02-24T04:05:15.676Z,4.45
2023-02-24T04:08:04.240Z,4.10
2023-02-24T04:10:41.233Z,4.93
2023-02-24T04:13:28.468Z,3.42
2023-02-24T04:16:08.388Z,3.42
2023-02-24T04:18:35.932Z,4.35
2023-02-24T04:21:05.588Z,3.03
2023-02-24T04:23:43.282Z,4.13
2023-02-24T04:26:16.044Z,4.03
2023-02-24T04:28:44.125Z,3.17
2023-02-24T04:31:17.658Z,3.45
2023-02-24T04:33:50.555Z,4.25
2023-02-24T04:36:22.411Z,3.47
2023-02-24T04:38:49.898Z,4.22
2023-02-24T04:41:21.604Z,3.92
2023-02-24T04:43:53.332Z,3.97
2023-02-24T04:46:20.606Z,5.10
2023-02-24T04:48:47.700Z,3.50
2023-02-24T04:51:14.718Z,3.42
2023-02-24T04:53:41.626Z,4.40
2023-02-24T04:56:10.045Z,4.63
2023-02-24T04:58:38.699Z,3.97
2023-02-24T05:01:11.021Z,4.00
2023-02-24T05:03:43.432Z,3.53
2023-02-24T05:06:16.616Z,3.72
2023-02-24T05:08:44.195Z,6.78
2023-02-24T05:11:19.405Z,4.15
2023-02-24T05:13:47.216Z,4.00
2023-02-24T05:16:17.005Z,5.32
2023-02-24T05:18:44.920Z,4.85
2023-02-24T05:21:33.404Z,4.18
2023-02-24T05:24:06.653Z,4.47
2023-02-24T05:26:37.141Z,4.30
2023-02-24T05:29:05.804Z,4.78
2023-02-24T05:31:33.098Z,3.75
2023-02-24T05:34:03.284Z,4.00
2023-02-24T05:36:35.268Z,3.67
2023-02-24T05:39:12.143Z,4.22
2023-02-24T05:41:42.204Z,4.25
2023-02-24T05:44:13.488Z,4.35
2023-02-24T05:46:44.727Z,5.30
2023-02-24T05:49:24.157Z,5.47
2023-02-24T05:51:54.983Z,5.88
2023-02-24T05:54:29.799Z,5.03
2023-02-24T05:57:01.579Z,4.75
2023-02-24T05:59:33.195Z,4.88
2023-02-24T06:02:07.605Z,5.20
2023-02-24T06:04:39.748Z,4.43
2023-02-24T06:07:34.415Z,4.88
2023-02-24T06:10:04.933Z,7.13
2023-02-24T06:12:34.726Z,3.30
2023-02-24T06:15:07.625Z,4.55
2023-02-24T06:17:34.898Z,4.10
2023-02-24T06:20:01.858Z,4.97
2023-02-24T06:22:28.880Z,4.10
2023-02-24T06:24:56.992Z,4.57
2023-02-24T06:27:25.229Z,4.22
2023-02-24T06:29:54.394Z,2.90
2023-02-24T06:32:24.430Z,4.70
2023-02-24T06:34:52.118Z,4.85
2023-02-24T06:37:19.030Z,4.93
2023-02-24T06:39:46.267Z,5.00
2023-02-24T06:42:13.462Z,4.72
2023-02-24T06:44:41.493Z,4.68
2023-02-24T06:47:11.623Z,4.47
2023-02-24T06:49:38.588Z,3.97
2023-02-24T06:52:06.037Z,4.10
2023-02-24T06:54:36.198Z,4.50
2023-02-24T06:57:04.271Z,4.45
2023-02-24T06:59:32.344Z,4.05
2023-02-24T07:02:03.530Z,2.85
2023-02-24T07:04:30.678Z,3.83
2023-02-24T07:07:03.407Z,4.15
2023-02-24T07:09:31.637Z,4.63
2023-02-24T07:12:02.668Z,3.97
2023-02-24T07:14:31.468Z,4.15
2023-02-24T07:16:59.747Z,4.32
2023-02-24T07:19:29.595Z,4.65
2023-02-24T07:22:02.416Z,3.88
2023-02-24T07:24:36.739Z,3.92
2023-02-24T07:27:06.655Z,4.00
2023-02-24T07:29:35.089Z,3.58
2023-02-24T07:32:05.906Z,3.53
2023-02-24T07:34:33.970Z,3.60
2023-02-24T07:37:08.440Z,4.10
2023-02-24T07:39:37.222Z,3.90
2023-02-24T07:42:05.038Z,4.40
2023-02-24T07:44:44.626Z,4.00
2023-02-24T07:47:11.737Z,3.92
2023-02-24T07:49:41.119Z,4.10
2023-02-24T07:52:08.776Z,3.13
2023-02-24T07:54:37.242Z,4.15
2023-02-24T07:57:06.298Z,3.53
2023-02-24T07:59:37.664Z,3.88
2023-02-24T08:02:07.829Z,5.10
2023-02-24T08:04:36.481Z,4.15
2023-02-24T08:07:04.362Z,4.05
2023-02-24T08:09:44.927Z,3.88
2023-02-24T08:12:18.387Z,4.15
2023-02-24T08:14:51.150Z,4.13
2023-02-24T08:17:26.611Z,4.82
2023-02-24T08:20:15.682Z,3.60
2023-02-24T08:22:46.837Z,4.45
2023-02-24T08:25:19.181Z,4.35
2023-02-24T08:28:06.852Z,5.10
2023-02-24T08:30:38.969Z,4.32
2023-02-24T08:33:09.247Z,4.13
2023-02-24T08:35:44.951Z,4.97
2023-02-24T08:38:16.662Z,4.40
2023-02-24T08:40:54.579Z,4.00
2023-02-24T08:43:33.034Z,4.30
2023-02-24T08:46:21.590Z,4.40
2023-02-24T08:48:55.614Z,5.30
2023-02-24T08:51:28.885Z,4.88
2023-02-24T08:54:02.309Z,5.18
2023-02-24T08:56:34.835Z,3.90
2023-02-24T08:59:07.798Z,5.13
2023-02-24T09:01:38.704Z,4.30
2023-02-24T09:04:09.480Z,4.53
2023-02-24T09:06:38.313Z,4.97
2023-02-24T09:09:18.139Z,4.63
2023-02-24T09:11:59.577Z,4.38
2023-02-24T09:14:39.405Z,4.03
2023-02-24T09:17:11.365Z,4.97
2023-02-24T09:19:46.431Z,4.10
2023-02-24T09:22:40.953Z,4.47
2023-02-24T09:25:40.686Z,4.20
2023-02-24T09:28:20.103Z,4.53
2023-02-24T09:30:56.441Z,4.53
2023-02-24T09:33:39.085Z,4.32
2023-02-24T09:36:13.022Z,4.20
2023-02-24T09:39:02.250Z,4.53
2023-02-24T09:42:18.135Z,4.00
2023-02-24T10:17:40.358Z,4.00
2023-02-24T10:20:39.561Z,4.63
2023-02-24T10:23:14.746Z,3.92
2023-02-24T10:25:56.244Z,4.28
2023-02-24T10:28:46.070Z,3.55
2023-02-24T10:31:25.797Z,4.40
2023-02-24T10:34:07.565Z,4.45
2023-02-24T10:36:35.945Z,4.47
2023-02-24T10:39:26.569Z,4.95
2023-02-24T10:41:59.263Z,4.75
2023-02-24T10:44:36.354Z,4.93
2023-02-24T10:47:13.384Z,4.47
2023-02-24T10:50:03.787Z,5.05
2023-02-24T10:52:51.112Z,5.43
2023-02-24T10:55:44.878Z,5.40
2023-02-24T10:58:38.224Z,5.68
2023-02-24T11:01:14.211Z,5.65
2023-02-24T11:04:01.171Z,9.88
2023-02-24T11:06:41.636Z,6.78
2023-02-24T11:09:29.706Z,6.40
2023-02-24T11:12:19.447Z,6.65
2023-02-24T11:15:17.999Z,7.65
2023-02-24T11:17:53.300Z,6.90
2023-02-24T11:20:48.460Z,6.93
2023-02-24T11:23:33.646Z,8.18
2023-02-24T11:26:12.107Z,7.63
2023-02-24T11:28:46.952Z,7.13
2023-02-24T11:31:23.339Z,7.80
2023-02-24T11:34:04.594Z,7.85
2023-02-24T11:37:04.649Z,8.52
2023-02-24T11:40:01.498Z,8.57
2023-02-24T11:42:46.262Z,7.68
2023-02-24T11:45:27.116Z,8.55
2023-02-24T11:48:04.838Z,7.53
2023-02-24T11:51:27.776Z,7.50
2023-02-24T11:54:05.937Z,7.63
2023-02-24T11:56:53.561Z,8.35
2023-02-24T11:59:37.051Z,8.10
2023-02-24T12:02:11.268Z,7.90
2023-02-24T12:05:02.931Z,7.75
2023-02-24T12:07:35.039Z,8.02
2023-02-24T12:10:16.076Z,8.10
2023-02-24T12:13:02.788Z,7.88
2023-02-24T12:15:50.899Z,7.80
2023-02-24T12:18:33.420Z,8.15
2023-02-24T12:21:30.728Z,8.02
2023-02-24T12:23:58.930Z,7.38
2023-02-24T12:27:08.669Z,7.80
2023-02-24T12:29:54.670Z,4.22
2023-02-24T12:32:57.750Z,4.43
2023-02-24T12:35:36.594Z,4.18
2023-02-24T12:38:46.019Z,3.30
2023-02-24T12:41:29.420Z,4.20
2023-02-24T12:44:22.990Z,3.22
2023-02-24T12:47:04.274Z,4.22
2023-02-24T12:49:40.400Z,3.70
2023-02-24T12:52:10.333Z,4.40
2023-02-24T12:55:02.796Z,3.33
2023-02-24T12:58:05.175Z,3.88
2023-02-24T13:00:45.220Z,2.88
2023-02-24T13:03:33.813Z,4.07
2023-02-24T13:06:10.013Z,3.88
2023-02-24T13:08:57.351Z,4.50
2023-02-24T13:11:43.059Z,4.20
2023-02-24T13:14:22.448Z,5.00
2023-02-24T13:16:49.474Z,3.72
2023-02-24T13:19:43.493Z,3.88
2023-02-24T13:22:13.190Z,6.80
2023-02-24T13:25:01.111Z,3.90
2023-02-24T13:27:32.139Z,3.45
2023-02-24T13:30:07.634Z,4.32
2023-02-24T13:32:36.529Z,4.78
2023-02-24T13:35:26.286Z,3.78
2023-02-24T13:37:54.653Z,4.68
2023-02-24T13:40:28.230Z,4.25
2023-02-24T13:42:58.373Z,3.83
2023-02-24T13:45:34.125Z,4.63
2023-02-24T13:48:07.222Z,3.50
2023-02-24T13:51:01.498Z,3.47
2023-02-24T13:53:59.629Z,4.00
2023-02-24T13:56:38.397Z,4.50
2023-02-24T13:59:16.833Z,4.53
2023-02-24T14:02:00.404Z,4.32
2023-02-24T14:04:36.072Z,4.18
2023-02-24T14:07:09.300Z,4.28
2023-02-24T14:09:47.354Z,4.53
2023-02-24T14:12:21.513Z,4.80
2023-02-24T14:14:50.124Z,4.10
2023-02-24T14:17:28.406Z,4.85
2023-02-24T14:20:06.962Z,4.43
2023-02-24T14:22:34.840Z,4.90
2023-02-24T14:25:03.409Z,4.40
2023-02-24T14:27:30.534Z,4.85
2023-02-24T14:29:57.937Z,5.28
2023-02-24T14:32:27.191Z,6.20
2023-02-24T14:34:55.217Z,4.65
2023-02-24T14:37:26.431Z,5.18
2023-02-24T14:39:59.290Z,5.30
2023-02-24T14:42:28.438Z,4.57
2023-02-24T14:44:58.363Z,8.52
2023-02-24T14:47:28.951Z,6.85
2023-02-24T14:50:02.629Z,7.20
2023-02-24T14:52:44.052Z,9.55
2023-02-24T14:55:16.686Z,7.55
2023-02-24T14:58:00.265Z,6.05
2023-02-24T15:00:33.085Z,5.57
2023-02-24T15:03:14.686Z,5.65
2023-02-24T15:05:48.784Z,5.97
2023-02-24T15:08:27.027Z,5.95
2023-02-24T15:10:54.201Z,5.20
2023-02-24T15:13:42.608Z,7.32
2023-02-24T15:16:15.228Z,6.05
2023-02-24T15:18:42.859Z,5.50
2023-02-24T15:21:21.201Z,6.00
2023-02-24T15:23:48.343Z,4.97
2023-02-24T15:26:35.356Z,5.15
2023-02-24T15:29:21.269Z,4.78
2023-02-24T15:31:50.222Z,6.00
2023-02-24T15:34:20.678Z,5.65
2023-02-24T15:36:48.684Z,5.90
2023-02-24T15:39:23.607Z,6.07
2023-02-24T15:41:52.554Z,5.63
2023-02-24T15:44:31.357Z,5.43
2023-02-24T15:47:00.891Z,5.63
2023-02-24T15:49:27.989Z,5.97
2023-02-24T15:51:59.780Z,6.85
2023-02-24T15:54:34.534Z,6.72
2023-02-24T15:57:02.697Z,6.60
2023-02-24T15:59:29.883Z,7.03
2023-02-24T16:01:57.584Z,6.70
2023-02-24T16:04:26.942Z,6.75
2023-02-24T16:06:56.642Z,7.65
2023-02-24T16:09:37.308Z,7.28
2023-02-24T16:12:10.837Z,7.15
2023-02-24T16:14:39.187Z,7.00
2023-02-24T16:17:17.425Z,6.93
2023-02-24T16:19:44.512Z,6.20
2023-02-24T16:22:11.661Z,6.80
2023-02-24T16:24:38.690Z,6.32
2023-02-24T16:27:06.351Z,5.95
2023-02-24T16:29:33.255Z,5.30
2023-02-24T16:32:00.475Z,6.78
2023-02-24T16:34:27.853Z,6.82
2023-02-24T16:36:54.822Z,7.07
2023-02-24T16:39:21.748Z,6.20
2023-02-24T16:41:48.801Z,6.97
2023-02-24T16:44:16.033Z,6.10
2023-02-24T16:46:45.396Z,7.07
2023-02-24T16:49:20.422Z,6.65
2023-02-24T16:51:47.487Z,6.70
2023-02-24T16:54:14.463Z,6.65
2023-02-24T16:56:41.606Z,6.75
2023-02-24T16:59:08.558Z,7.82
2023-02-24T17:01:35.557Z,5.47
2023-02-24T17:04:05.390Z,6.57
2023-02-24T17:06:32.501Z,6.65
2023-02-24T17:08:59.541Z,6.88
2023-02-24T17:11:29.010Z,8.32
2023-02-24T17:13:55.943Z,6.65
2023-02-24T17:16:23.260Z,7.10
2023-02-24T17:18:50.553Z,8.35
2023-02-24T17:21:18.310Z,11.05
2023-02-24T17:23:45.285Z,12.88
2023-02-24T17:26:15.697Z,17.42
2023-02-24T17:28:43.259Z,13.48
2023-02-24T17:31:10.359Z,13.45
2023-02-24T17:33:37.341Z,10.45
2023-02-24T17:36:04.455Z,9.70
2023-02-24T17:38:31.433Z,10.23
2023-02-24T17:40:58.412Z,9.82
2023-02-24T17:43:25.310Z,8.80
2023-02-24T17:45:53.082Z,8.05
2023-02-24T17:48:20.891Z,8.55
2023-02-24T17:50:48.797Z,9.00
2023-02-24T17:53:15.961Z,8.73
2023-02-24T17:56:01.002Z,8.27
2023-02-24T17:58:28.777Z,8.75
2023-02-24T18:00:55.838Z,8.85
2023-02-24T18:03:23.103Z,7.78
2023-02-24T18:05:58.921Z,8.20
2023-02-24T18:08:25.991Z,8.57
2023-02-24T18:10:53.216Z,9.48
2023-02-24T18:13:20.264Z,9.40
2023-02-24T18:15:47.243Z,8.43
2023-02-24T18:18:14.219Z,9.27
2023-02-24T18:20:44.773Z,9.05
2023-02-24T18:23:12.661Z,8.63
2023-02-24T18:25:40.086Z,9.68
2023-02-24T18:28:07.325Z,9.40
2023-02-24T18:30:34.416Z,9.27
2023-02-24T18:33:02.211Z,9.50
2023-02-24T18:35:30.627Z,10.10
2023-02-24T18:37:57.723Z,9.30
2023-02-24T18:40:28.866Z,10.90
2023-02-24T18:42:56.036Z,10.02
2023-02-24T18:45:23.600Z,11.50
2023-02-24T18:47:52.129Z,8.95
2023-02-24T18:50:19.314Z,8.95
2023-02-24T18:52:46.341Z,8.43
2023-02-24T18:55:13.293Z,9.02
2023-02-24T18:57:41.302Z,10.77
2023-02-24T19:00:09.636Z,9.98
2023-02-24T19:02:36.894Z,10.77
2023-02-24T19:05:03.888Z,9.82
2023-02-24T19:07:30.768Z,10.68
2023-02-24T19:09:57.662Z,12.85
2023-02-24T19:12:24.664Z,12.48
2023-02-24T19:14:52.648Z,10.18
2023-02-24T19:17:20.186Z,10.05
2023-02-24T19:19:47.127Z,9.10
2023-02-24T19:22:14.101Z,8.27
2023-02-24T19:24:41.125Z,8.05
2023-02-24T19:27:08.912Z,7.40
2023-02-24T19:29:35.973Z,7.93
2023-02-24T19:32:03.122Z,8.60
2023-02-24T19:34:30.157Z,7.55
2023-02-24T19:36:57.113Z,8.02
2023-02-24T19:39:23.986Z,7.85
2023-02-24T19:41:51.010Z,7.00
2023-02-24T19:44:18.013Z,7.13
2023-02-24T19:46:45.189Z,7.03
2023-02-24T19:49:12.137Z,6.95
2023-02-24T19:51:39.210Z,6.53
2023-02-24T19:54:06.503Z,7.68
2023-02-24T19:56:35.794Z,6.63
2023-02-24T19:59:05.028Z,6.40
2023-02-24T20:01:32.619Z,9.20
2023-02-24T20:04:01.796Z,11.25
2023-02-24T20:06:35.725Z,5.68
2023-02-24T20:09:09.041Z,5.85
2023-02-24T20:11:44.452Z,5.95
2023-02-24T20:14:12.757Z,6.07
2023-02-24T20:16:43.742Z,5.82
2023-02-24T20:19:13.260Z,6.32
2023-02-24T20:21:40.977Z,7.13
2023-02-24T20:24:13.403Z,7.90
2023-02-24T20:26:42.214Z,8.13
2023-02-24T20:29:09.643Z,6.78
2023-02-24T20:31:36.768Z,7.05
2023-02-24T20:34:06.068Z,7.70
2023-02-24T20:36:33.115Z,8.38
2023-02-24T20:39:00.287Z,8.02
2023-02-24T20:41:29.424Z,8.85
2023-02-24T20:43:56.511Z,6.35
2023-02-24T20:46:27.437Z,7.47
2023-02-24T20:49:02.961Z,6.20
2023-02-24T20:51:31.522Z,6.60
2023-02-24T20:53:58.856Z,5.57
2023-02-24T20:56:34.203Z,7.68
2023-02-24T20:59:06.798Z,12.18
2023-02-24T21:01:35.172Z,22.02
2023-02-24T21:04:03.129Z,19.75
2023-02-24T21:06:30.268Z,12.07
2023-02-24T21:08:58.417Z,12.10
2023-02-24T21:11:26.013Z,11.63
2023-02-24T21:13:53.596Z,9.48
2023-02-24T21:16:21.882Z,8.68
2023-02-24T21:18:51.573Z,7.30
2023-02-24T21:21:19.924Z,6.72
2023-02-24T21:23:47.911Z,7.03
2023-02-24T21:26:15.307Z,5.70
2023-02-24T21:28:42.329Z,6.95
2023-02-24T21:31:11.392Z,5.53
2023-02-24T21:33:38.637Z,5.93
2023-02-24T21:36:09.719Z,6.80
2023-02-24T21:38:37.713Z,7.40
2023-02-24T21:41:07.508Z,6.10
2023-02-24T21:43:34.611Z,5.72
2023-02-24T21:46:06.854Z,6.38
2023-02-24T21:48:34.167Z,6.70
2023-02-24T21:51:07.080Z,6.60
2023-02-24T21:53:35.906Z,7.18
2023-02-24T21:56:04.873Z,7.72
2023-02-24T21:58:33.122Z,7.68
2023-02-24T22:01:00.184Z,7.85
2023-02-24T22:03:28.132Z,7.80
2023-02-24T22:05:55.087Z,8.68
2023-02-24T22:08:22.234Z,8.93
2023-02-24T22:10:58.820Z,8.18
2023-02-24T22:15:53.136Z,8.13
2023-02-24T22:18:21.235Z,9.15
2023-02-24T22:20:48.321Z,9.57
2023-02-24T22:23:15.226Z,9.73
2023-02-24T22:25:42.098Z,9.75
2023-02-24T22:28:09.023Z,8.02
2023-02-24T22:30:36.200Z,9.63
2023-02-24T22:33:03.231Z,8.95
2023-02-24T22:35:30.146Z,8.93
2023-02-24T22:37:57.357Z,10.75
2023-02-24T22:40:24.343Z,10.10
2023-02-24T22:42:51.228Z,9.27
2023-02-24T22:45:18.243Z,10.30
2023-02-24T22:47:45.165Z,9.90
2023-02-24T22:50:12.287Z,9.80
2023-02-24T22:52:39.982Z,11.10
2023-02-24T22:55:07.487Z,11.13
2023-02-24T22:57:35.011Z,11.73
2023-02-24T23:00:02.018Z,10.88
2023-02-24T23:02:28.922Z,11.00
2023-02-24T23:04:57.447Z,9.88
2023-02-24T23:07:24.323Z,10.70
2023-02-24T23:09:53.142Z,9.93
2023-02-24T23:12:22.366Z,10.57
2023-02-24T23:14:49.353Z,9.35
2023-02-24T23:17:16.406Z,10.70
2023-02-24T23:19:43.301Z,9.50
2023-02-24T23:22:10.270Z,10.98
2023-02-24T23:24:37.259Z,11.40
2023-02-24T23:27:04.405Z,10.82
2023-02-24T23:29:31.327Z,11.45
2023-02-24T23:31:58.533Z,12.10
2023-02-24T23:34:25.773Z,11.35
2023-02-24T23:36:53.210Z,13.07
2023-02-24T23:39:23.650Z,12.23
2023-02-24T23:41:56.752Z,12.25
2023-02-24T23:44:24.049Z,11.77
2023-02-24T23:46:51.039Z,11.85
2023-02-24T23:49:17.957Z,12.20
2023-02-24T23:51:48.814Z,11.43
2023-02-24T23:54:19.284Z,11.75
2023-02-24T23:56:46.687Z,12.32
2023-02-24T23:59:14.529Z,12.48
